sensor_id;sensor_type;location;lat;lon;timestamp;P1;durP1;ratioP1;P2;durP2;ratioP2
16173;SDS011;14031;50.158;8.626;2024-03-06T00:00:02;8.20;;;7.47;;
16173;SDS011;14031;50.158;8.626;2024-03-06T00:02:29;8.67;;;7.90;;
16173;SDS011;14031;50.158;8.626;2024-03-06T00:04:56;8.43;;;7.73;;
16173;SDS011;14031;50.158;8.626;2024-03-06T00:07:25;7.77;;;7.00;;
16173;SDS011;14031;50.158;8.626;2024-03-06T00:09:52;8.20;;;7.43;;
16173;SDS011;14031;50.158;8.626;2024-03-06T00:12:19;9.83;;;7.33;;
16173;SDS011;14031;50.158;8.626;2024-03-06T00:14:45;8.03;;;7.33;;
16173;SDS011;14031;50.158;8.626;2024-03-06T00:17:13;8.93;;;7.83;;
16173;SDS011;14031;50.158;8.626;2024-03-06T00:19:40;8.57;;;7.80;;
16173;SDS011;14031;50.158;8.626;2024-03-06T00:22:08;9.43;;;8.43;;
16173;SDS011;14031;50.158;8.626;2024-03-06T00:24:36;9.03;;;8.00;;
16173;SDS011;14031;50.158;8.626;2024-03-06T00:27:03;8.73;;;7.83;;
16173;SDS011;14031;50.158;8.626;2024-03-06T00:29:31;8.73;;;7.40;;
16173;SDS011;14031;50.158;8.626;2024-03-06T00:31:57;8.23;;;7.43;;
16173;SDS011;14031;50.158;8.626;2024-03-06T00:34:24;7.30;;;6.73;;
16173;SDS011;14031;50.158;8.626;2024-03-06T00:36:52;7.47;;;6.97;;
16173;SDS011;14031;50.158;8.626;2024-03-06T00:39:19;7.93;;;7.33;;
16173;SDS011;14031;50.158;8.626;2024-03-06T00:41:47;8.60;;;7.90;;
16173;SDS011;14031;50.158;8.626;2024-03-06T00:44:14;7.67;;;6.90;;
16173;SDS011;14031;50.158;8.626;2024-03-06T00:46:42;7.77;;;6.90;;
16173;SDS011;14031;50.158;8.626;2024-03-06T00:49:08;7.90;;;7.20;;
16173;SDS011;14031;50.158;8.626;2024-03-06T00:51:35;7.17;;;6.53;;
16173;SDS011;14031;50.158;8.626;2024-03-06T00:54:02;7.13;;;6.53;;
16173;SDS011;14031;50.158;8.626;2024-03-06T00:56:29;7.50;;;6.80;;
16173;SDS011;14031;50.158;8.626;2024-03-06T00:58:58;7.30;;;6.80;;
16173;SDS011;14031;50.158;8.626;2024-03-06T01:01:25;7.37;;;6.77;;
16173;SDS011;14031;50.158;8.626;2024-03-06T01:03:52;7.43;;;6.73;;
16173;SDS011;14031;50.158;8.626;2024-03-06T01:06:20;7.73;;;6.87;;
16173;SDS011;14031;50.158;8.626;2024-03-06T01:08:47;7.53;;;6.93;;
16173;SDS011;14031;50.158;8.626;2024-03-06T01:11:13;7.87;;;7.03;;
16173;SDS011;14031;50.158;8.626;2024-03-06T01:13:40;7.50;;;6.90;;
16173;SDS011;14031;50.158;8.626;2024-03-06T01:16:08;7.80;;;7.10;;
16173;SDS011;14031;50.158;8.626;2024-03-06T01:18:35;7.07;;;6.47;;
16173;SDS011;14031;50.158;8.626;2024-03-06T01:21:02;8.23;;;6.70;;
16173;SDS011;14031;50.158;8.626;2024-03-06T01:23:29;7.13;;;6.63;;
16173;SDS011;14031;50.158;8.626;2024-03-06T01:25:56;7.37;;;6.67;;
16173;SDS011;14031;50.158;8.626;2024-03-06T01:28:23;7.53;;;6.93;;
16173;SDS011;14031;50.158;8.626;2024-03-06T01:30:49;7.60;;;6.90;;
16173;SDS011;14031;50.158;8.626;2024-03-06T01:33:17;7.73;;;7.03;;
16173;SDS011;14031;50.158;8.626;2024-03-06T01:35:44;7.10;;;6.50;;
16173;SDS011;14031;50.158;8.626;2024-03-06T01:38:11;6.77;;;6.23;;
16173;SDS011;14031;50.158;8.626;2024-03-06T01:40:42;7.10;;;6.60;;
16173;SDS011;14031;50.158;8.626;2024-03-06T01:43:16;6.90;;;6.33;;
16173;SDS011;14031;50.158;8.626;2024-03-06T01:45:47;6.17;;;5.63;;
16173;SDS011;14031;50.158;8.626;2024-03-06T01:48:15;6.97;;;6.27;;
16173;SDS011;14031;50.158;8.626;2024-03-06T01:50:55;7.43;;;6.83;;
16173;SDS011;14031;50.158;8.626;2024-03-06T01:53:24;7.17;;;6.67;;
16173;SDS011;14031;50.158;8.626;2024-03-06T01:55:52;6.27;;;5.87;;
16173;SDS011;14031;50.158;8.626;2024-03-06T01:58:19;6.23;;;5.50;;
16173;SDS011;14031;50.158;8.626;2024-03-06T02:00:47;6.90;;;6.40;;
16173;SDS011;14031;50.158;8.626;2024-03-06T02:03:16;6.57;;;5.97;;
16173;SDS011;14031;50.158;8.626;2024-03-06T02:05:44;6.47;;;6.07;;
16173;SDS011;14031;50.158;8.626;2024-03-06T02:08:12;6.20;;;5.70;;
16173;SDS011;14031;50.158;8.626;2024-03-06T02:10:39;5.80;;;5.40;;
16173;SDS011;14031;50.158;8.626;2024-03-06T02:13:06;5.87;;;5.47;;
16173;SDS011;14031;50.158;8.626;2024-03-06T02:15:34;5.80;;;5.40;;
16173;SDS011;14031;50.158;8.626;2024-03-06T02:18:04;5.77;;;5.37;;
16173;SDS011;14031;50.158;8.626;2024-03-06T02:20:32;5.20;;;4.80;;
16173;SDS011;14031;50.158;8.626;2024-03-06T02:23:00;5.37;;;5.07;;
16173;SDS011;14031;50.158;8.626;2024-03-06T02:25:27;5.53;;;5.00;;
16173;SDS011;14031;50.158;8.626;2024-03-06T02:27:54;5.10;;;4.70;;
16173;SDS011;14031;50.158;8.626;2024-03-06T02:30:21;5.27;;;4.80;;
16173;SDS011;14031;50.158;8.626;2024-03-06T02:32:48;5.30;;;4.90;;
16173;SDS011;14031;50.158;8.626;2024-03-06T02:35:14;5.10;;;4.70;;
16173;SDS011;14031;50.158;8.626;2024-03-06T02:37:44;5.10;;;4.73;;
16173;SDS011;14031;50.158;8.626;2024-03-06T02:40:11;5.97;;;5.27;;
16173;SDS011;14031;50.158;8.626;2024-03-06T02:42:37;5.10;;;4.80;;
16173;SDS011;14031;50.158;8.626;2024-03-06T02:45:05;5.63;;;5.23;;
16173;SDS011;14031;50.158;8.626;2024-03-06T02:47:31;7.07;;;5.03;;
16173;SDS011;14031;50.158;8.626;2024-03-06T02:49:58;5.90;;;5.40;;
16173;SDS011;14031;50.158;8.626;2024-03-06T02:52:25;5.23;;;4.83;;
16173;SDS011;14031;50.158;8.626;2024-03-06T02:54:53;5.10;;;4.80;;
16173;SDS011;14031;50.158;8.626;2024-03-06T02:57:20;5.30;;;4.83;;
16173;SDS011;14031;50.158;8.626;2024-03-06T02:59:47;5.10;;;4.80;;
16173;SDS011;14031;50.158;8.626;2024-03-06T03:02:13;4.73;;;4.33;;
16173;SDS011;14031;50.158;8.626;2024-03-06T03:04:40;5.87;;;5.43;;
16173;SDS011;14031;50.158;8.626;2024-03-06T03:07:07;5.93;;;5.43;;
16173;SDS011;14031;50.158;8.626;2024-03-06T03:09:35;5.27;;;4.87;;
16173;SDS011;14031;50.158;8.626;2024-03-06T03:12:04;4.73;;;4.43;;
16173;SDS011;14031;50.158;8.626;2024-03-06T03:14:31;5.07;;;4.77;;
16173;SDS011;14031;50.158;8.626;2024-03-06T03:16:58;4.30;;;4.00;;
16173;SDS011;14031;50.158;8.626;2024-03-06T03:19:26;6.27;;;4.97;;
16173;SDS011;14031;50.158;8.626;2024-03-06T03:21:53;5.47;;;5.07;;
16173;SDS011;14031;50.158;8.626;2024-03-06T03:24:19;4.90;;;4.60;;
16173;SDS011;14031;50.158;8.626;2024-03-06T03:26:46;4.43;;;4.10;;
16173;SDS011;14031;50.158;8.626;2024-03-06T03:29:14;4.70;;;4.30;;
16173;SDS011;14031;50.158;8.626;2024-03-06T03:31:41;4.93;;;4.63;;
16173;SDS011;14031;50.158;8.626;2024-03-06T03:34:08;4.87;;;4.30;;
16173;SDS011;14031;50.158;8.626;2024-03-06T03:36:39;5.27;;;4.17;;
16173;SDS011;14031;50.158;8.626;2024-03-06T03:39:06;4.70;;;4.40;;
16173;SDS011;14031;50.158;8.626;2024-03-06T03:41:42;4.87;;;4.57;;
16173;SDS011;14031;50.158;8.626;2024-03-06T03:44:10;5.03;;;4.50;;
16173;SDS011;14031;50.158;8.626;2024-03-06T03:46:38;5.30;;;4.43;;
16173;SDS011;14031;50.158;8.626;2024-03-06T03:49:05;5.83;;;4.43;;
16173;SDS011;14031;50.158;8.626;2024-03-06T03:51:33;4.97;;;4.63;;
16173;SDS011;14031;50.158;8.626;2024-03-06T03:54:00;4.90;;;4.50;;
16173;SDS011;14031;50.158;8.626;2024-03-06T03:56:27;5.20;;;4.80;;
16173;SDS011;14031;50.158;8.626;2024-03-06T03:58:53;5.10;;;4.70;;
16173;SDS011;14031;50.158;8.626;2024-03-06T04:01:21;5.27;;;4.87;;
16173;SDS011;14031;50.158;8.626;2024-03-06T04:03:49;5.23;;;4.83;;
16173;SDS011;14031;50.158;8.626;2024-03-06T04:06:16;6.47;;;4.73;;
16173;SDS011;14031;50.158;8.626;2024-03-06T04:08:43;5.13;;;4.83;;
16173;SDS011;14031;50.158;8.626;2024-03-06T04:11:10;5.10;;;4.60;;
16173;SDS011;14031;50.158;8.626;2024-03-06T04:13:38;5.03;;;4.53;;
16173;SDS011;14031;50.158;8.626;2024-03-06T04:16:05;5.40;;;4.90;;
16173;SDS011;14031;50.158;8.626;2024-03-06T04:18:32;4.70;;;4.40;;
16173;SDS011;14031;50.158;8.626;2024-03-06T04:21:01;4.73;;;4.43;;
16173;SDS011;14031;50.158;8.626;2024-03-06T04:23:30;6.47;;;5.23;;
16173;SDS011;14031;50.158;8.626;2024-03-06T04:25:57;5.77;;;4.70;;
16173;SDS011;14031;50.158;8.626;2024-03-06T04:28:23;5.10;;;4.77;;
16173;SDS011;14031;50.158;8.626;2024-03-06T04:30:50;4.40;;;4.10;;
16173;SDS011;14031;50.158;8.626;2024-03-06T04:33:17;4.73;;;4.00;;
16173;SDS011;14031;50.158;8.626;2024-03-06T04:35:43;4.47;;;4.17;;
16173;SDS011;14031;50.158;8.626;2024-03-06T04:38:12;5.27;;;4.87;;
16173;SDS011;14031;50.158;8.626;2024-03-06T04:40:39;5.27;;;4.87;;
16173;SDS011;14031;50.158;8.626;2024-03-06T04:43:05;5.67;;;5.27;;
16173;SDS011;14031;50.158;8.626;2024-03-06T04:45:32;7.03;;;4.60;;
16173;SDS011;14031;50.158;8.626;2024-03-06T04:47:59;5.33;;;4.53;;
16173;SDS011;14031;50.158;8.626;2024-03-06T04:50:26;4.97;;;4.57;;
16173;SDS011;14031;50.158;8.626;2024-03-06T04:52:53;4.90;;;4.50;;
16173;SDS011;14031;50.158;8.626;2024-03-06T04:55:22;4.40;;;4.17;;
16173;SDS011;14031;50.158;8.626;2024-03-06T04:57:52;4.63;;;4.30;;
16173;SDS011;14031;50.158;8.626;2024-03-06T05:00:19;4.73;;;4.43;;
16173;SDS011;14031;50.158;8.626;2024-03-06T05:02:46;4.63;;;4.33;;
16173;SDS011;14031;50.158;8.626;2024-03-06T05:05:14;5.40;;;5.00;;
16173;SDS011;14031;50.158;8.626;2024-03-06T05:07:41;4.60;;;4.30;;
16173;SDS011;14031;50.158;8.626;2024-03-06T05:10:08;5.33;;;4.93;;
16173;SDS011;14031;50.158;8.626;2024-03-06T05:12:36;5.43;;;5.03;;
16173;SDS011;14031;50.158;8.626;2024-03-06T05:15:03;4.90;;;4.50;;
16173;SDS011;14031;50.158;8.626;2024-03-06T05:17:31;5.87;;;5.47;;
16173;SDS011;14031;50.158;8.626;2024-03-06T05:19:58;4.87;;;4.47;;
16173;SDS011;14031;50.158;8.626;2024-03-06T05:22:25;5.37;;;4.87;;
16173;SDS011;14031;50.158;8.626;2024-03-06T05:24:52;4.63;;;4.33;;
16173;SDS011;14031;50.158;8.626;2024-03-06T05:27:20;4.63;;;4.23;;
16173;SDS011;14031;50.158;8.626;2024-03-06T05:29:48;8.87;;;4.57;;
16173;SDS011;14031;50.158;8.626;2024-03-06T05:32:14;6.20;;;4.10;;
16173;SDS011;14031;50.158;8.626;2024-03-06T05:34:41;5.07;;;4.67;;
16173;SDS011;14031;50.158;8.626;2024-03-06T05:37:08;5.00;;;4.60;;
16173;SDS011;14031;50.158;8.626;2024-03-06T05:39:35;4.87;;;4.57;;
16173;SDS011;14031;50.158;8.626;2024-03-06T05:42:02;5.17;;;4.87;;
16173;SDS011;14031;50.158;8.626;2024-03-06T05:44:30;5.30;;;4.90;;
16173;SDS011;14031;50.158;8.626;2024-03-06T05:46:58;4.73;;;4.43;;
16173;SDS011;14031;50.158;8.626;2024-03-06T05:49:26;5.37;;;5.07;;
16173;SDS011;14031;50.158;8.626;2024-03-06T05:51:52;4.93;;;4.60;;
16173;SDS011;14031;50.158;8.626;2024-03-06T05:54:19;6.23;;;5.70;;
16173;SDS011;14031;50.158;8.626;2024-03-06T05:56:47;5.73;;;5.23;;
16173;SDS011;14031;50.158;8.626;2024-03-06T05:59:16;8.03;;;5.17;;
16173;SDS011;14031;50.158;8.626;2024-03-06T06:01:43;5.87;;;4.90;;
16173;SDS011;14031;50.158;8.626;2024-03-06T06:04:11;7.03;;;5.60;;
16173;SDS011;14031;50.158;8.626;2024-03-06T06:06:39;5.40;;;5.00;;
16173;SDS011;14031;50.158;8.626;2024-03-06T06:09:06;6.80;;;6.10;;
16173;SDS011;14031;50.158;8.626;2024-03-06T06:11:37;7.00;;;5.40;;
16173;SDS011;14031;50.158;8.626;2024-03-06T06:14:04;5.30;;;4.93;;
16173;SDS011;14031;50.158;8.626;2024-03-06T06:16:34;5.13;;;4.73;;
16173;SDS011;14031;50.158;8.626;2024-03-06T06:19:02;7.83;;;5.40;;
16173;SDS011;14031;50.158;8.626;2024-03-06T06:21:30;6.07;;;5.67;;
16173;SDS011;14031;50.158;8.626;2024-03-06T06:23:57;6.23;;;5.70;;
16173;SDS011;14031;50.158;8.626;2024-03-06T06:26:24;5.70;;;5.30;;
16173;SDS011;14031;50.158;8.626;2024-03-06T06:28:50;7.03;;;5.60;;
16173;SDS011;14031;50.158;8.626;2024-03-06T06:31:17;5.87;;;5.37;;
16173;SDS011;14031;50.158;8.626;2024-03-06T06:33:44;5.83;;;4.73;;
16173;SDS011;14031;50.158;8.626;2024-03-06T06:36:12;5.23;;;4.87;;
16173;SDS011;14031;50.158;8.626;2024-03-06T06:38:40;6.47;;;5.03;;
16173;SDS011;14031;50.158;8.626;2024-03-06T06:41:07;5.13;;;4.73;;
16173;SDS011;14031;50.158;8.626;2024-03-06T06:43:34;6.10;;;5.50;;
16173;SDS011;14031;50.158;8.626;2024-03-06T06:46:00;5.53;;;5.03;;
16173;SDS011;14031;50.158;8.626;2024-03-06T06:48:29;9.00;;;8.10;;
16173;SDS011;14031;50.158;8.626;2024-03-06T06:50:58;17.50;;;12.80;;
16173;SDS011;14031;50.158;8.626;2024-03-06T06:53:25;11.27;;;9.90;;
16173;SDS011;14031;50.158;8.626;2024-03-06T06:55:53;9.37;;;8.40;;
16173;SDS011;14031;50.158;8.626;2024-03-06T06:58:20;9.33;;;7.77;;
16173;SDS011;14031;50.158;8.626;2024-03-06T07:00:47;7.47;;;6.77;;
16173;SDS011;14031;50.158;8.626;2024-03-06T07:03:13;7.00;;;6.43;;
16173;SDS011;14031;50.158;8.626;2024-03-06T07:05:40;6.40;;;5.80;;
16173;SDS011;14031;50.158;8.626;2024-03-06T07:08:07;6.57;;;6.07;;
16173;SDS011;14031;50.158;8.626;2024-03-06T07:10:34;9.83;;;6.47;;
16173;SDS011;14031;50.158;8.626;2024-03-06T07:13:02;6.10;;;5.60;;
16173;SDS011;14031;50.158;8.626;2024-03-06T07:15:31;5.53;;;5.20;;
16173;SDS011;14031;50.158;8.626;2024-03-06T07:17:57;6.23;;;5.73;;
16173;SDS011;14031;50.158;8.626;2024-03-06T07:20:24;6.97;;;6.33;;
16173;SDS011;14031;50.158;8.626;2024-03-06T07:22:51;7.30;;;6.70;;
16173;SDS011;14031;50.158;8.626;2024-03-06T07:25:18;8.07;;;7.37;;
16173;SDS011;14031;50.158;8.626;2024-03-06T07:27:45;8.60;;;7.77;;
16173;SDS011;14031;50.158;8.626;2024-03-06T07:30:14;7.40;;;6.83;;
16173;SDS011;14031;50.158;8.626;2024-03-06T07:32:41;10.83;;;6.83;;
16173;SDS011;14031;50.158;8.626;2024-03-06T07:35:08;14.87;;;9.90;;
16173;SDS011;14031;50.158;8.626;2024-03-06T07:37:35;11.90;;;9.80;;
16173;SDS011;14031;50.158;8.626;2024-03-06T07:40:02;10.27;;;9.03;;
16173;SDS011;14031;50.158;8.626;2024-03-06T07:42:30;13.57;;;9.90;;
16173;SDS011;14031;50.158;8.626;2024-03-06T07:44:57;15.30;;;10.43;;
16173;SDS011;14031;50.158;8.626;2024-03-06T07:47:25;13.60;;;10.07;;
16173;SDS011;14031;50.158;8.626;2024-03-06T07:49:51;11.83;;;10.20;;
16173;SDS011;14031;50.158;8.626;2024-03-06T07:52:19;12.30;;;10.10;;
16173;SDS011;14031;50.158;8.626;2024-03-06T07:54:46;13.00;;;11.00;;
16173;SDS011;14031;50.158;8.626;2024-03-06T07:57:13;11.87;;;10.67;;
16173;SDS011;14031;50.158;8.626;2024-03-06T07:59:39;10.77;;;9.60;;
16173;SDS011;14031;50.158;8.626;2024-03-06T08:02:06;10.70;;;9.30;;
16173;SDS011;14031;50.158;8.626;2024-03-06T08:04:35;15.30;;;9.57;;
16173;SDS011;14031;50.158;8.626;2024-03-06T08:07:02;14.87;;;9.93;;
16173;SDS011;14031;50.158;8.626;2024-03-06T08:09:29;13.70;;;10.30;;
16173;SDS011;14031;50.158;8.626;2024-03-06T08:11:56;18.47;;;9.70;;
16173;SDS011;14031;50.158;8.626;2024-03-06T08:14:23;11.63;;;9.80;;
16173;SDS011;14031;50.158;8.626;2024-03-06T08:16:50;11.57;;;10.17;;
16173;SDS011;14031;50.158;8.626;2024-03-06T08:19:17;11.23;;;9.80;;
16173;SDS011;14031;50.158;8.626;2024-03-06T08:21:45;11.20;;;10.03;;
16173;SDS011;14031;50.158;8.626;2024-03-06T08:24:12;19.43;;;12.17;;
16173;SDS011;14031;50.158;8.626;2024-03-06T08:26:40;19.67;;;13.03;;
16173;SDS011;14031;50.158;8.626;2024-03-06T08:29:07;14.13;;;12.43;;
16173;SDS011;14031;50.158;8.626;2024-03-06T08:31:33;17.07;;;12.90;;
16173;SDS011;14031;50.158;8.626;2024-03-06T08:34:00;20.80;;;13.90;;
16173;SDS011;14031;50.158;8.626;2024-03-06T08:36:27;18.70;;;13.23;;
16173;SDS011;14031;50.158;8.626;2024-03-06T08:38:55;16.10;;;12.80;;
16173;SDS011;14031;50.158;8.626;2024-03-06T08:41:22;17.87;;;13.17;;
16173;SDS011;14031;50.158;8.626;2024-03-06T08:43:49;20.60;;;13.47;;
16173;SDS011;14031;50.158;8.626;2024-03-06T08:46:15;18.70;;;13.07;;
16173;SDS011;14031;50.158;8.626;2024-03-06T08:48:42;19.10;;;13.93;;
16173;SDS011;14031;50.158;8.626;2024-03-06T08:51:09;17.13;;;14.13;;
16173;SDS011;14031;50.158;8.626;2024-03-06T08:53:36;18.77;;;13.43;;
16173;SDS011;14031;50.158;8.626;2024-03-06T08:56:05;15.03;;;12.70;;
16173;SDS011;14031;50.158;8.626;2024-03-06T08:58:32;18.80;;;13.23;;
16173;SDS011;14031;50.158;8.626;2024-03-06T09:00:59;16.40;;;12.33;;
16173;SDS011;14031;50.158;8.626;2024-03-06T09:03:26;16.20;;;13.40;;
16173;SDS011;14031;50.158;8.626;2024-03-06T09:05:53;18.37;;;13.90;;
16173;SDS011;14031;50.158;8.626;2024-03-06T09:08:19;18.83;;;13.73;;
16173;SDS011;14031;50.158;8.626;2024-03-06T09:10:46;19.23;;;13.83;;
16173;SDS011;14031;50.158;8.626;2024-03-06T09:13:14;18.13;;;13.40;;
16173;SDS011;14031;50.158;8.626;2024-03-06T09:15:41;20.60;;;14.47;;
16173;SDS011;14031;50.158;8.626;2024-03-06T09:18:08;19.60;;;14.33;;
16173;SDS011;14031;50.158;8.626;2024-03-06T09:20:34;25.30;;;14.77;;
16173;SDS011;14031;50.158;8.626;2024-03-06T09:23:01;21.50;;;15.73;;
16173;SDS011;14031;50.158;8.626;2024-03-06T09:25:28;22.43;;;14.53;;
16173;SDS011;14031;50.158;8.626;2024-03-06T09:27:55;22.90;;;15.10;;
16173;SDS011;14031;50.158;8.626;2024-03-06T09:30:23;25.17;;;15.90;;
16173;SDS011;14031;50.158;8.626;2024-03-06T09:32:50;24.57;;;16.43;;
16173;SDS011;14031;50.158;8.626;2024-03-06T09:35:17;23.43;;;16.53;;
16173;SDS011;14031;50.158;8.626;2024-03-06T09:37:44;22.30;;;15.90;;
16173;SDS011;14031;50.158;8.626;2024-03-06T09:40:16;24.93;;;15.33;;
16173;SDS011;14031;50.158;8.626;2024-03-06T09:42:46;27.87;;;16.00;;
16173;SDS011;14031;50.158;8.626;2024-03-06T09:45:14;23.97;;;16.50;;
16173;SDS011;14031;50.158;8.626;2024-03-06T09:47:42;23.77;;;16.53;;
16173;SDS011;14031;50.158;8.626;2024-03-06T09:50:09;23.53;;;15.50;;
16173;SDS011;14031;50.158;8.626;2024-03-06T09:52:36;25.27;;;15.80;;
16173;SDS011;14031;50.158;8.626;2024-03-06T09:55:05;23.57;;;16.37;;
16173;SDS011;14031;50.158;8.626;2024-03-06T09:57:34;25.43;;;16.53;;
16173;SDS011;14031;50.158;8.626;2024-03-06T10:00:01;25.03;;;15.63;;
16173;SDS011;14031;50.158;8.626;2024-03-06T10:02:38;23.67;;;16.00;;
16173;SDS011;14031;50.158;8.626;2024-03-06T10:05:20;25.33;;;16.27;;
16173;SDS011;14031;50.158;8.626;2024-03-06T10:07:48;23.33;;;15.37;;
16173;SDS011;14031;50.158;8.626;2024-03-06T10:10:17;24.30;;;15.70;;
16173;SDS011;14031;50.158;8.626;2024-03-06T10:12:45;19.80;;;14.17;;
16173;SDS011;14031;50.158;8.626;2024-03-06T10:15:12;22.70;;;14.57;;
16173;SDS011;14031;50.158;8.626;2024-03-06T10:17:39;20.00;;;13.80;;
16173;SDS011;14031;50.158;8.626;2024-03-06T10:20:16;16.77;;;12.90;;
16173;SDS011;14031;50.158;8.626;2024-03-06T10:22:46;16.00;;;12.23;;
16173;SDS011;14031;50.158;8.626;2024-03-06T10:25:15;15.50;;;11.73;;
16173;SDS011;14031;50.158;8.626;2024-03-06T10:27:43;14.37;;;11.07;;
16173;SDS011;14031;50.158;8.626;2024-03-06T10:30:10;12.47;;;10.17;;
16173;SDS011;14031;50.158;8.626;2024-03-06T10:32:41;12.53;;;10.37;;
16173;SDS011;14031;50.158;8.626;2024-03-06T10:35:17;12.00;;;10.40;;
16173;SDS011;14031;50.158;8.626;2024-03-06T10:37:44;12.03;;;10.70;;
16173;SDS011;14031;50.158;8.626;2024-03-06T10:40:14;13.53;;;10.40;;
16173;SDS011;14031;50.158;8.626;2024-03-06T10:42:43;14.17;;;10.30;;
16173;SDS011;14031;50.158;8.626;2024-03-06T10:45:12;13.27;;;10.63;;
16173;SDS011;14031;50.158;8.626;2024-03-06T10:47:41;12.07;;;10.17;;
16173;SDS011;14031;50.158;8.626;2024-03-06T10:50:13;12.60;;;10.63;;
16173;SDS011;14031;50.158;8.626;2024-03-06T10:52:41;12.87;;;10.73;;
16173;SDS011;14031;50.158;8.626;2024-03-06T10:55:13;11.97;;;10.17;;
16173;SDS011;14031;50.158;8.626;2024-03-06T10:57:41;11.17;;;10.00;;
16173;SDS011;14031;50.158;8.626;2024-03-06T11:00:09;12.20;;;9.93;;
16173;SDS011;14031;50.158;8.626;2024-03-06T11:02:41;11.53;;;9.93;;
16173;SDS011;14031;50.158;8.626;2024-03-06T11:05:08;14.07;;;10.90;;
16173;SDS011;14031;50.158;8.626;2024-03-06T11:07:36;11.60;;;10.33;;
16173;SDS011;14031;50.158;8.626;2024-03-06T11:10:03;11.70;;;10.27;;
16173;SDS011;14031;50.158;8.626;2024-03-06T11:12:36;11.77;;;9.97;;
16173;SDS011;14031;50.158;8.626;2024-03-06T11:15:13;13.60;;;10.13;;
16173;SDS011;14031;50.158;8.626;2024-03-06T11:17:40;13.17;;;10.90;;
16173;SDS011;14031;50.158;8.626;2024-03-06T11:20:14;18.97;;;13.03;;
16173;SDS011;14031;50.158;8.626;2024-03-06T11:23:02;15.77;;;11.70;;
16173;SDS011;14031;50.158;8.626;2024-03-06T11:28:29;17.33;;;12.43;;
16173;SDS011;14031;50.158;8.626;2024-03-06T11:30:57;16.47;;;12.80;;
16173;SDS011;14031;50.158;8.626;2024-03-06T11:33:34;18.60;;;13.20;;
16173;SDS011;14031;50.158;8.626;2024-03-06T11:36:15;19.60;;;12.93;;
16173;SDS011;14031;50.158;8.626;2024-03-06T11:38:47;15.77;;;12.40;;
16173;SDS011;14031;50.158;8.626;2024-03-06T11:41:18;16.13;;;12.50;;
16173;SDS011;14031;50.158;8.626;2024-03-06T11:43:46;16.70;;;11.70;;
16173;SDS011;14031;50.158;8.626;2024-03-06T11:46:15;18.07;;;13.07;;
16173;SDS011;14031;50.158;8.626;2024-03-06T11:48:43;16.50;;;12.60;;
16173;SDS011;14031;50.158;8.626;2024-03-06T11:51:17;18.10;;;13.07;;
16173;SDS011;14031;50.158;8.626;2024-03-06T11:53:44;19.60;;;12.90;;
16173;SDS011;14031;50.158;8.626;2024-03-06T11:56:11;19.23;;;13.33;;
16173;SDS011;14031;50.158;8.626;2024-03-06T11:58:38;15.70;;;12.07;;
16173;SDS011;14031;50.158;8.626;2024-03-06T12:01:06;20.13;;;13.40;;
16173;SDS011;14031;50.158;8.626;2024-03-06T12:03:33;17.40;;;13.20;;
16173;SDS011;14031;50.158;8.626;2024-03-06T12:06:00;15.43;;;12.60;;
16173;SDS011;14031;50.158;8.626;2024-03-06T12:08:28;16.67;;;13.33;;
16173;SDS011;14031;50.158;8.626;2024-03-06T12:10:55;16.83;;;12.67;;
16173;SDS011;14031;50.158;8.626;2024-03-06T12:13:23;14.03;;;11.57;;
16173;SDS011;14031;50.158;8.626;2024-03-06T12:15:50;13.47;;;11.30;;
16173;SDS011;14031;50.158;8.626;2024-03-06T12:18:18;12.63;;;10.80;;
16173;SDS011;14031;50.158;8.626;2024-03-06T12:20:45;11.80;;;10.40;;
16173;SDS011;14031;50.158;8.626;2024-03-06T12:23:18;11.57;;;10.37;;
16173;SDS011;14031;50.158;8.626;2024-03-06T12:25:46;17.40;;;11.67;;
16173;SDS011;14031;50.158;8.626;2024-03-06T12:28:13;11.70;;;10.50;;
16173;SDS011;14031;50.158;8.626;2024-03-06T12:30:40;11.87;;;10.67;;
16173;SDS011;14031;50.158;8.626;2024-03-06T12:33:09;11.43;;;10.17;;
16173;SDS011;14031;50.158;8.626;2024-03-06T12:35:41;11.55;;;10.38;;
16173;SDS011;14031;50.158;8.626;2024-03-06T12:38:11;11.63;;;10.43;;
16173;SDS011;14031;50.158;8.626;2024-03-06T12:40:38;16.10;;;11.50;;
16173;SDS011;14031;50.158;8.626;2024-03-06T12:43:05;14.43;;;11.68;;
16173;SDS011;14031;50.158;8.626;2024-03-06T12:45:32;16.63;;;12.83;;
16173;SDS011;14031;50.158;8.626;2024-03-06T12:47:59;18.57;;;13.17;;
16173;SDS011;14031;50.158;8.626;2024-03-06T12:50:26;16.27;;;12.77;;
16173;SDS011;14031;50.158;8.626;2024-03-06T12:52:54;18.17;;;13.07;;
16173;SDS011;14031;50.158;8.626;2024-03-06T12:55:22;15.98;;;13.02;;
16173;SDS011;14031;50.158;8.626;2024-03-06T12:57:48;15.98;;;12.95;;
16173;SDS011;14031;50.158;8.626;2024-03-06T13:00:16;13.63;;;11.60;;
16173;SDS011;14031;50.158;8.626;2024-03-06T13:02:43;15.73;;;12.75;;
16173;SDS011;14031;50.158;8.626;2024-03-06T13:05:11;15.77;;;12.73;;
16173;SDS011;14031;50.158;8.626;2024-03-06T13:07:38;17.23;;;12.80;;
16173;SDS011;14031;50.158;8.626;2024-03-06T13:10:09;18.47;;;11.93;;
16173;SDS011;14031;50.158;8.626;2024-03-06T13:12:36;16.25;;;12.75;;
16173;SDS011;14031;50.158;8.626;2024-03-06T13:15:03;15.13;;;12.18;;
16173;SDS011;14031;50.158;8.626;2024-03-06T13:17:32;16.70;;;12.13;;
16173;SDS011;14031;50.158;8.626;2024-03-06T13:19:59;17.02;;;12.90;;
16173;SDS011;14031;50.158;8.626;2024-03-06T13:22:26;14.68;;;11.98;;
16173;SDS011;14031;50.158;8.626;2024-03-06T13:24:52;19.02;;;13.65;;
16173;SDS011;14031;50.158;8.626;2024-03-06T13:27:20;18.73;;;12.93;;
16173;SDS011;14031;50.158;8.626;2024-03-06T13:29:47;15.43;;;12.87;;
16173;SDS011;14031;50.158;8.626;2024-03-06T13:32:14;18.07;;;13.17;;
16173;SDS011;14031;50.158;8.626;2024-03-06T13:34:41;17.17;;;12.77;;
16173;SDS011;14031;50.158;8.626;2024-03-06T13:37:08;17.93;;;11.57;;
16173;SDS011;14031;50.158;8.626;2024-03-06T13:39:36;15.83;;;12.70;;
16173;SDS011;14031;50.158;8.626;2024-03-06T13:42:04;15.27;;;11.87;;
16173;SDS011;14031;50.158;8.626;2024-03-06T13:44:34;15.47;;;12.67;;
16173;SDS011;14031;50.158;8.626;2024-03-06T13:47:01;17.37;;;11.93;;
16173;SDS011;14031;50.158;8.626;2024-03-06T13:49:34;16.57;;;12.47;;
16173;SDS011;14031;50.158;8.626;2024-03-06T13:52:02;16.97;;;12.07;;
16173;SDS011;14031;50.158;8.626;2024-03-06T13:54:30;14.43;;;11.50;;
16173;SDS011;14031;50.158;8.626;2024-03-06T13:56:57;15.40;;;12.00;;
16173;SDS011;14031;50.158;8.626;2024-03-06T13:59:26;16.53;;;12.17;;
16173;SDS011;14031;50.158;8.626;2024-03-06T14:01:55;16.50;;;12.57;;
16173;SDS011;14031;50.158;8.626;2024-03-06T14:04:24;15.57;;;12.10;;
16173;SDS011;14031;50.158;8.626;2024-03-06T14:06:50;14.13;;;11.93;;
16173;SDS011;14031;50.158;8.626;2024-03-06T14:09:17;13.13;;;11.17;;
16173;SDS011;14031;50.158;8.626;2024-03-06T14:11:44;13.75;;;11.13;;
16173;SDS011;14031;50.158;8.626;2024-03-06T14:14:11;14.38;;;11.38;;
16173;SDS011;14031;50.158;8.626;2024-03-06T14:16:38;16.55;;;10.77;;
16173;SDS011;14031;50.158;8.626;2024-03-06T14:19:07;13.47;;;10.43;;
16173;SDS011;14031;50.158;8.626;2024-03-06T14:21:34;13.07;;;10.77;;
16173;SDS011;14031;50.158;8.626;2024-03-06T14:24:01;13.60;;;10.70;;
16173;SDS011;14031;50.158;8.626;2024-03-06T14:26:29;11.57;;;9.90;;
16173;SDS011;14031;50.158;8.626;2024-03-06T14:28:56;11.40;;;9.97;;
16173;SDS011;14031;50.158;8.626;2024-03-06T14:31:23;10.97;;;9.87;;
16173;SDS011;14031;50.158;8.626;2024-03-06T14:33:49;11.93;;;9.70;;
16173;SDS011;14031;50.158;8.626;2024-03-06T14:36:18;12.33;;;9.53;;
16173;SDS011;14031;50.158;8.626;2024-03-06T14:38:46;11.30;;;9.87;;
16173;SDS011;14031;50.158;8.626;2024-03-06T14:41:13;10.43;;;9.43;;